createdAt,value
2018-10-21T00:00:33.275Z,27.20
2018-10-21T00:03:03.346Z,22.17
2018-10-21T00:05:33.618Z,25.27
2018-10-21T00:08:04.242Z,23.43
2018-10-21T00:10:34.332Z,26.30
2018-10-21T00:13:04.803Z,29.63
2018-10-21T00:15:35.024Z,23.67
2018-10-21T00:18:05.613Z,25.77
2018-10-21T00:20:35.728Z,29.73
2018-10-21T00:23:06.161Z,23.40
2018-10-21T00:25:36.285Z,24.03
2018-10-21T00:28:07.193Z,22.47
2018-10-21T00:30:43.873Z,23.77
2018-10-21T00:33:13.986Z,21.90
2018-10-21T00:35:44.207Z,26.17
2018-10-21T00:38:14.286Z,21.30
2018-10-21T00:40:50.847Z,23.40
2018-10-21T00:43:20.923Z,25.60
2018-10-21T00:45:50.975Z,24.40
2018-10-21T00:48:21.382Z,21.93
2018-10-21T00:50:51.413Z,25.77
2018-10-21T00:53:21.490Z,26.93
2018-10-21T00:55:51.533Z,20.00
2018-10-21T00:58:21.593Z,23.03
2018-10-21T01:00:51.700Z,22.50
2018-10-21T01:03:21.786Z,23.63
2018-10-21T01:05:51.826Z,21.50
2018-10-21T01:08:22.271Z,22.80
2018-10-21T01:10:52.330Z,24.57
2018-10-21T01:13:22.390Z,22.60
2018-10-21T01:15:52.458Z,24.17
2018-10-21T01:18:22.539Z,26.33
2018-10-21T01:20:52.812Z,28.03
2018-10-21T01:23:23.174Z,21.50
2018-10-21T01:25:53.251Z,22.60
2018-10-21T01:28:23.298Z,26.57
2018-10-21T01:30:53.383Z,22.13
2018-10-21T01:33:23.437Z,22.90
2018-10-21T01:35:53.534Z,23.03
2018-10-21T01:38:23.716Z,23.37
2018-10-21T01:40:58.104Z,25.83
2018-10-21T01:43:30.685Z,27.47
2018-10-21T01:46:01.720Z,23.13
2018-10-21T01:48:32.717Z,26.10
2018-10-21T01:51:02.898Z,27.53
2018-10-21T01:53:33.078Z,28.57
2018-10-21T01:56:03.558Z,26.60
2018-10-21T01:58:33.648Z,26.23
2018-10-21T02:01:04.038Z,27.27
2018-10-21T02:03:34.453Z,24.00
2018-10-21T02:06:04.574Z,26.87
2018-10-21T02:08:34.653Z,28.57
2018-10-21T02:11:04.877Z,29.10
2018-10-21T02:13:34.963Z,26.03
2018-10-21T02:16:05.104Z,29.80
2018-10-21T02:18:35.175Z,29.67
2018-10-21T02:21:05.499Z,27.33
2018-10-21T02:23:35.745Z,26.70
2018-10-21T02:26:05.815Z,28.00
2018-10-21T02:28:35.886Z,28.40
2018-10-21T02:31:06.258Z,28.10
2018-10-21T02:33:36.510Z,32.67
2018-10-21T02:36:06.606Z,28.07
2018-10-21T02:38:36.704Z,25.73
2018-10-21T02:41:44.378Z,31.97
2018-10-21T02:44:15.776Z,23.40
2018-10-21T02:46:46.902Z,29.23
2018-10-21T02:49:17.463Z,27.53
2018-10-21T02:51:53.153Z,25.23
2018-10-21T02:54:24.417Z,26.57
2018-10-21T02:56:54.758Z,31.83
2018-10-21T02:59:25.612Z,32.10
2018-10-21T03:01:56.042Z,22.67
2018-10-21T03:04:26.123Z,30.40
2018-10-21T03:06:56.525Z,25.23
2018-10-21T03:09:27.135Z,26.37
2018-10-21T03:11:57.437Z,25.13
2018-10-21T03:14:27.988Z,25.63
2018-10-21T03:16:58.085Z,25.37
2018-10-21T03:19:28.182Z,22.53
2018-10-21T03:21:58.472Z,27.70
2018-10-21T03:24:28.757Z,28.70
2018-10-21T03:26:58.865Z,25.23
2018-10-21T03:29:29.109Z,23.93
2018-10-21T03:31:59.216Z,25.23
2018-10-21T03:34:29.267Z,23.67
2018-10-21T03:36:59.374Z,27.90
2018-10-21T03:39:29.435Z,29.70
2018-10-21T03:41:59.519Z,23.70
2018-10-21T03:44:29.607Z,23.67
2018-10-21T03:46:59.714Z,28.07
2018-10-21T03:49:29.761Z,25.97
2018-10-21T03:51:59.863Z,26.20
2018-10-21T03:54:30.106Z,27.67
2018-10-21T03:57:00.214Z,29.13
2018-10-21T03:59:30.310Z,28.73
2018-10-21T04:02:00.383Z,25.97
2018-10-21T04:04:30.425Z,23.40
2018-10-21T04:07:00.518Z,24.73
2018-10-21T04:09:30.585Z,31.03
2018-10-21T04:12:00.652Z,27.50
2018-10-21T04:14:30.755Z,26.23
2018-10-21T04:17:00.830Z,31.00
2018-10-21T04:19:30.910Z,22.30
2018-10-21T04:22:01.030Z,26.03
2018-10-21T04:24:31.269Z,25.27
2018-10-21T04:27:01.309Z,24.37
2018-10-21T04:29:31.411Z,25.47
2018-10-21T04:32:01.461Z,25.90
2018-10-21T04:34:31.551Z,28.37
2018-10-21T04:37:12.985Z,28.77
2018-10-21T04:40:46.309Z,24.83
2018-10-21T04:43:16.385Z,24.97
2018-10-21T04:45:46.474Z,27.20
2018-10-21T04:48:16.595Z,26.60
2018-10-21T04:50:47.169Z,25.27
2018-10-21T04:53:17.249Z,26.63
2018-10-21T04:55:47.347Z,25.40
2018-10-21T04:58:18.001Z,25.17
2018-10-21T05:00:48.306Z,27.33
2018-10-21T05:03:18.522Z,24.27
2018-10-21T05:05:48.573Z,27.63
2018-10-21T05:08:18.693Z,31.23
2018-10-21T05:10:48.745Z,27.53
2018-10-21T05:13:18.840Z,27.47
2018-10-21T05:15:48.922Z,26.80
2018-10-21T05:18:19.002Z,27.87
2018-10-21T05:20:49.090Z,31.07
2018-10-21T05:23:19.155Z,29.03
2018-10-21T05:25:49.237Z,27.67
2018-10-21T05:28:19.284Z,29.67
2018-10-21T05:30:49.565Z,27.67
2018-10-21T05:33:19.641Z,26.23
2018-10-21T05:35:49.718Z,29.13
2018-10-21T05:38:19.774Z,26.13
2018-10-21T05:40:49.864Z,27.77
2018-10-21T05:43:19.958Z,23.50
2018-10-21T05:45:50.225Z,29.73
2018-10-21T05:48:20.325Z,27.33
2018-10-21T05:50:50.383Z,27.97
2018-10-21T05:53:20.477Z,30.27
2018-10-21T05:55:50.553Z,27.03
2018-10-21T05:58:20.700Z,29.00
2018-10-21T06:00:50.891Z,27.13
2018-10-21T06:03:21.022Z,30.83
2018-10-21T06:05:51.098Z,27.93
2018-10-21T06:08:21.172Z,27.80
2018-10-21T06:10:51.233Z,26.97
2018-10-21T06:13:21.366Z,27.57
2018-10-21T06:15:51.482Z,30.47
2018-10-21T06:18:24.754Z,32.83
2018-10-21T06:20:57.609Z,29.63
2018-10-21T06:23:27.699Z,29.03
2018-10-21T06:25:57.967Z,28.90
2018-10-21T06:28:28.002Z,27.83
2018-10-21T06:30:58.078Z,29.03
2018-10-21T06:33:28.208Z,28.43
2018-10-21T06:35:58.671Z,30.73
2018-10-21T06:38:28.762Z,28.43
2018-10-21T06:40:58.874Z,29.03
2018-10-21T06:43:30.510Z,33.50
2018-10-21T06:46:00.604Z,28.10
2018-10-21T06:48:30.999Z,31.30
2018-10-21T06:51:01.237Z,29.30
2018-10-21T06:53:31.490Z,27.27
2018-10-21T06:56:01.646Z,32.97
2018-10-21T06:58:31.733Z,33.80
2018-10-21T07:01:01.920Z,30.17
2018-10-21T07:03:32.161Z,30.93
2018-10-21T07:06:08.834Z,33.83
2018-10-21T07:08:38.889Z,31.80
2018-10-21T07:11:08.994Z,35.47
2018-10-21T07:13:39.123Z,34.50
2018-10-21T07:16:10.052Z,35.13
2018-10-21T07:18:40.981Z,37.77
2018-10-21T07:21:11.100Z,36.93
2018-10-21T07:23:41.160Z,34.70
2018-10-21T07:26:11.240Z,37.63
2018-10-21T07:28:41.332Z,39.27
2018-10-21T07:31:11.589Z,38.37
2018-10-21T07:33:41.699Z,42.07
2018-10-21T07:36:12.125Z,36.60
2018-10-21T07:38:42.213Z,36.20
2018-10-21T07:41:12.318Z,36.33
2018-10-21T07:43:42.561Z,33.67
2018-10-21T07:46:12.691Z,32.87
2018-10-21T07:48:42.922Z,36.43
2018-10-21T07:51:12.981Z,37.73
2018-10-21T07:53:43.070Z,34.23
2018-10-21T07:56:13.150Z,34.30
2018-10-21T07:58:43.219Z,34.40
2018-10-21T08:01:13.923Z,38.80
2018-10-21T08:03:44.182Z,34.40
2018-10-21T08:06:26.917Z,31.77
2018-10-21T08:08:57.463Z,34.20
2018-10-21T08:11:27.513Z,39.07
2018-10-21T08:13:57.622Z,35.53
2018-10-21T08:16:27.700Z,39.23
2018-10-21T08:18:57.746Z,37.37
2018-10-21T08:21:27.846Z,38.20
2018-10-21T08:23:57.897Z,34.07
2018-10-21T08:26:27.973Z,36.53
2018-10-21T08:28:58.019Z,38.20
2018-10-21T08:31:28.121Z,37.63
2018-10-21T08:33:58.523Z,35.33
2018-10-21T08:36:28.786Z,32.97
2018-10-21T08:38:58.830Z,31.03
2018-10-21T08:41:28.893Z,37.37
2018-10-21T08:43:58.938Z,33.33
2018-10-21T08:46:29.088Z,37.60
2018-10-21T08:48:59.350Z,38.03
2018-10-21T08:51:29.594Z,39.27
2018-10-21T08:53:59.637Z,31.30
2018-10-21T08:56:29.729Z,35.43
2018-10-21T08:58:59.910Z,35.40
2018-10-21T09:01:29.955Z,35.17
2018-10-21T09:04:00.627Z,35.85
2018-10-21T09:06:31.442Z,35.00
2018-10-21T09:09:02.074Z,32.50
2018-10-21T09:11:32.709Z,35.85
2018-10-21T09:14:02.801Z,33.73
2018-10-21T09:16:32.947Z,32.97
2018-10-21T09:19:03.486Z,34.23
2018-10-21T09:21:34.318Z,34.15
2018-10-21T09:24:05.154Z,37.45
2018-10-21T09:26:36.366Z,33.60
2018-10-21T09:29:07.234Z,37.00
2018-10-21T09:31:37.852Z,33.08
2018-10-21T09:34:08.474Z,32.35
2018-10-21T09:36:39.285Z,30.32
2018-10-21T09:39:12.946Z,34.18
2018-10-21T09:41:44.267Z,28.38
2018-10-21T09:44:14.913Z,27.50
2018-10-21T09:46:45.876Z,27.07
2018-10-21T09:49:16.588Z,25.50
2018-10-21T09:51:47.337Z,30.72
2018-10-21T09:54:17.961Z,30.55
2018-10-21T09:56:48.565Z,29.45
2018-10-21T09:59:19.199Z,24.80
2018-10-21T10:01:55.546Z,24.92
2018-10-21T10:04:26.247Z,25.60
2018-10-21T10:06:57.041Z,26.48
2018-10-21T10:09:27.843Z,26.37
2018-10-21T10:11:58.493Z,28.75
2018-10-21T10:14:29.130Z,25.55
2018-10-21T10:16:59.792Z,21.07
2018-10-21T10:19:30.410Z,21.57
2018-10-21T10:22:01.066Z,18.77
2018-10-21T10:24:31.886Z,20.92
2018-10-21T10:27:02.539Z,18.48
2018-10-21T10:29:33.174Z,20.08
2018-10-21T10:32:04.162Z,22.73
2018-10-21T10:34:34.771Z,19.67
2018-10-21T10:37:05.695Z,19.07
2018-10-21T10:42:13.680Z,14.83
2018-10-21T10:44:44.434Z,21.30
2018-10-21T10:47:15.097Z,15.03
2018-10-21T10:49:45.721Z,15.45
2018-10-21T10:52:16.455Z,16.10
2018-10-21T10:54:47.300Z,17.37
2018-10-21T10:57:17.866Z,17.02
2018-10-21T10:59:48.606Z,18.23
2018-10-21T11:02:19.545Z,14.15
2018-10-21T11:04:50.174Z,14.70
2018-10-21T11:07:20.900Z,15.93
2018-10-21T11:09:51.538Z,16.97
2018-10-21T11:12:22.318Z,12.93
2018-10-21T11:14:52.999Z,15.68
2018-10-21T11:17:23.663Z,10.08
2018-10-21T11:19:54.338Z,11.45
2018-10-21T11:22:25.153Z,10.75
2018-10-21T11:24:55.833Z,10.85
2018-10-21T11:27:26.678Z,11.43
2018-10-21T11:29:57.286Z,8.28
2018-10-21T11:32:28.074Z,9.65
2018-10-21T11:34:58.661Z,8.55
2018-10-21T11:37:29.747Z,5.20
2018-10-21T11:40:00.907Z,6.28
2018-10-21T11:42:31.677Z,5.87
2018-10-21T11:45:02.609Z,6.50
2018-10-21T11:47:33.591Z,7.78
2018-10-21T11:50:04.802Z,6.65
2018-10-21T11:52:36.083Z,7.65
2018-10-21T11:55:07.830Z,4.95
2018-10-21T11:57:38.757Z,6.25
2018-10-21T12:00:10.310Z,5.62
2018-10-21T12:02:40.953Z,6.42
2018-10-21T12:05:11.599Z,8.95
2018-10-21T12:07:42.564Z,6.28
2018-10-21T12:10:13.308Z,5.40
2018-10-21T12:12:44.104Z,5.95
2018-10-21T12:15:14.725Z,3.25
2018-10-21T12:17:45.373Z,6.05
2018-10-21T12:20:16.050Z,3.33
2018-10-21T12:22:47.323Z,4.42
2018-10-21T12:25:18.271Z,8.73
2018-10-21T12:27:49.003Z,7.42
2018-10-21T12:30:19.623Z,4.17
2018-10-21T12:32:50.287Z,7.08
2018-10-21T12:35:20.905Z,5.60
2018-10-21T12:37:58.126Z,4.97
2018-10-21T12:40:28.745Z,6.50
2018-10-21T12:42:59.469Z,3.12
2018-10-21T12:45:30.353Z,2.50
2018-10-21T12:48:01.062Z,5.08
2018-10-21T12:50:31.733Z,4.22
2018-10-21T12:53:02.377Z,5.12
2018-10-21T12:55:33.177Z,2.77
2018-10-21T12:58:03.857Z,4.87
2018-10-21T13:00:34.765Z,2.87
2018-10-21T13:03:05.411Z,4.40
2018-10-21T13:05:36.014Z,2.80
2018-10-21T13:08:06.943Z,4.58
2018-10-21T13:10:37.538Z,3.25
2018-10-21T13:13:08.418Z,3.15
2018-10-21T13:15:39.075Z,3.90
2018-10-21T13:18:09.707Z,3.05
2018-10-21T13:20:40.663Z,1.12
2018-10-21T13:23:11.286Z,2.85
2018-10-21T13:25:41.965Z,3.62
2018-10-21T13:28:12.982Z,3.17
2018-10-21T13:30:43.963Z,3.15
2018-10-21T13:33:14.603Z,3.00
2018-10-21T13:35:45.185Z,2.17
2018-10-21T13:38:15.798Z,1.37
2018-10-21T13:40:46.822Z,3.42
2018-10-21T13:43:17.723Z,3.37
2018-10-21T13:45:48.509Z,3.35
2018-10-21T13:48:19.693Z,2.47
2018-10-21T13:50:50.317Z,4.40
2018-10-21T13:53:20.958Z,2.55
2018-10-21T13:55:51.784Z,5.05
2018-10-21T13:58:22.398Z,4.33
2018-10-21T14:00:53.073Z,4.65
2018-10-21T14:03:23.889Z,2.10
2018-10-21T14:05:54.490Z,5.78
2018-10-21T14:08:25.495Z,3.42
2018-10-21T14:10:56.156Z,3.62
2018-10-21T14:13:26.775Z,4.65
2018-10-21T14:15:57.442Z,1.87
2018-10-21T14:18:28.247Z,2.58
2018-10-21T14:20:58.825Z,2.72
2018-10-21T14:23:29.725Z,2.58
2018-10-21T14:26:00.387Z,4.45
2018-10-21T14:28:31.088Z,3.33
2018-10-21T14:33:38.702Z,2.20
2018-10-21T14:36:09.360Z,3.27
2018-10-21T14:38:40.223Z,3.65
2018-10-21T14:41:10.878Z,2.52
2018-10-21T14:43:41.555Z,2.02
2018-10-21T14:46:12.304Z,5.62
2018-10-21T14:48:43.091Z,5.47
2018-10-21T14:51:13.842Z,2.00
2018-10-21T14:53:44.569Z,2.60
2018-10-21T14:56:15.232Z,3.10
2018-10-21T14:58:46.074Z,3.00
2018-10-21T15:01:16.694Z,4.00
2018-10-21T15:03:47.364Z,2.83
2018-10-21T15:06:18.076Z,2.77
2018-10-21T15:08:48.873Z,2.33
2018-10-21T15:11:19.539Z,2.92
2018-10-21T15:13:50.199Z,4.92
2018-10-21T15:16:21.021Z,3.37
2018-10-21T15:18:52.003Z,3.80
2018-10-21T15:21:22.840Z,4.00
2018-10-21T15:23:53.483Z,4.22
2018-10-21T15:26:24.334Z,3.58
2018-10-21T15:28:54.967Z,4.28
2018-10-21T15:31:25.809Z,4.60
2018-10-21T15:33:56.709Z,4.80
2018-10-21T15:36:27.513Z,5.08
2018-10-21T15:38:59.317Z,6.67
2018-10-21T15:41:29.957Z,2.55
2018-10-21T15:44:00.637Z,3.83
2018-10-21T15:46:31.416Z,3.75
2018-10-21T15:49:02.149Z,2.98
2018-10-21T15:51:32.915Z,3.62
2018-10-21T15:54:03.655Z,5.70
2018-10-21T15:56:34.291Z,6.33
2018-10-21T15:59:05.306Z,4.53
2018-10-21T16:01:36.442Z,3.35
2018-10-21T16:04:07.228Z,4.78
2018-10-21T16:06:38.015Z,7.33
2018-10-21T16:09:11.013Z,3.12
2018-10-21T16:11:41.815Z,1.90
2018-10-21T16:14:12.612Z,3.92
2018-10-21T16:16:43.314Z,4.87
2018-10-21T16:19:13.950Z,2.80
2018-10-21T16:21:44.532Z,4.35
2018-10-21T16:24:15.166Z,4.33
2018-10-21T16:26:45.770Z,2.72
2018-10-21T16:29:16.385Z,2.20
2018-10-21T16:31:47.059Z,3.12
2018-10-21T16:34:17.875Z,6.05
2018-10-21T16:36:48.597Z,4.53
2018-10-21T16:39:19.265Z,3.70
2018-10-21T16:41:49.993Z,2.65
2018-10-21T16:44:20.614Z,4.00
2018-10-21T16:46:51.274Z,5.05
2018-10-21T16:49:21.861Z,3.55
2018-10-21T16:51:52.486Z,4.58
2018-10-21T16:54:23.220Z,4.15
2018-10-21T16:56:53.937Z,5.75
2018-10-21T16:59:24.866Z,3.98
2018-10-21T17:01:55.575Z,6.62
2018-10-21T17:04:26.182Z,4.92
2018-10-21T17:06:57.149Z,4.50
2018-10-21T17:09:28.065Z,5.05
2018-10-21T17:11:58.765Z,4.15
2018-10-21T17:14:29.389Z,5.80
2018-10-21T17:17:00.002Z,5.47
2018-10-21T17:19:30.607Z,4.40
2018-10-21T17:22:01.268Z,6.53
2018-10-21T17:24:32.046Z,7.08
2018-10-21T17:27:03.022Z,7.25
2018-10-21T17:29:33.606Z,5.55
2018-10-21T17:32:04.273Z,6.78
2018-10-21T17:34:34.863Z,9.03
2018-10-21T17:37:05.915Z,7.00
2018-10-21T17:39:36.677Z,6.08
2018-10-21T17:42:07.301Z,5.55
2018-10-21T17:44:37.925Z,7.92
2018-10-21T17:47:08.534Z,8.48
2018-10-21T17:49:39.139Z,6.20
2018-10-21T17:52:09.877Z,7.03
2018-10-21T17:54:40.621Z,10.58
2018-10-21T17:57:11.418Z,5.72
2018-10-21T17:59:42.012Z,8.83
2018-10-21T18:02:13.286Z,6.58
2018-10-21T18:04:43.908Z,6.42
2018-10-21T18:07:14.568Z,6.10
2018-10-21T18:09:45.314Z,6.65
2018-10-21T18:12:15.914Z,7.47
2018-10-21T18:14:47.030Z,7.58
2018-10-21T18:17:17.629Z,10.45
2018-10-21T18:19:48.277Z,7.87
2018-10-21T18:22:19.208Z,8.65
2018-10-21T18:24:50.031Z,6.10
2018-10-21T18:27:21.497Z,6.87
2018-10-21T18:29:52.116Z,7.10
2018-10-21T18:32:22.723Z,5.95
2018-10-21T18:34:53.608Z,6.50
2018-10-21T18:37:24.198Z,5.55
2018-10-21T18:39:54.821Z,8.05
2018-10-21T18:42:25.619Z,6.60
2018-10-21T18:44:56.218Z,5.97
2018-10-21T18:47:26.830Z,7.03
2018-10-21T18:49:57.409Z,9.73
2018-10-21T18:52:28.033Z,7.33
2018-10-21T18:54:58.730Z,5.85
2018-10-21T18:57:29.478Z,8.18
2018-10-21T19:00:00.090Z,5.80
2018-10-21T19:02:30.919Z,7.05
2018-10-21T19:05:01.516Z,5.47
2018-10-21T19:07:32.664Z,6.65
2018-10-21T19:10:03.673Z,8.28
2018-10-21T19:12:34.437Z,7.30
2018-10-21T19:15:05.327Z,10.45
2018-10-21T19:17:36.137Z,5.22
2018-10-21T19:20:09.326Z,11.00
2018-10-21T19:22:40.102Z,9.33
2018-10-21T19:25:12.073Z,11.28
2018-10-21T19:27:43.498Z,9.23
2018-10-21T19:30:14.629Z,9.38
2018-10-21T19:32:45.452Z,6.40
2018-10-21T19:35:16.621Z,7.40
2018-10-21T19:37:47.233Z,9.45
2018-10-21T19:40:17.910Z,10.90
2018-10-21T19:42:48.690Z,8.83
2018-10-21T19:45:19.305Z,7.87
2018-10-21T19:47:49.926Z,10.90
2018-10-21T19:50:20.554Z,11.60
2018-10-21T19:52:51.153Z,13.38
2018-10-21T19:55:21.798Z,11.50
2018-10-21T19:57:52.426Z,12.18
2018-10-21T20:00:23.101Z,8.98
2018-10-21T20:02:53.835Z,9.33
2018-10-21T20:05:24.470Z,8.28
2018-10-21T20:07:55.070Z,10.45
2018-10-21T20:10:26.033Z,8.98
2018-10-21T20:12:56.993Z,6.15
2018-10-21T20:15:27.842Z,11.15
2018-10-21T20:17:58.470Z,6.85
2018-10-21T20:20:29.106Z,7.55
2018-10-21T20:22:59.711Z,8.45
2018-10-21T20:25:30.333Z,5.60
2018-10-21T20:28:01.335Z,11.08
2018-10-21T20:30:32.107Z,9.40
2018-10-21T20:33:02.769Z,9.08
2018-10-21T20:35:33.524Z,7.90
2018-10-21T20:38:04.786Z,7.92
2018-10-21T20:40:37.289Z,6.72
2018-10-21T20:43:07.925Z,6.10
2018-10-21T20:45:38.904Z,7.37
2018-10-21T20:48:09.559Z,6.90
2018-10-21T20:50:40.342Z,6.85
2018-10-21T20:53:10.935Z,8.08
2018-10-21T20:55:41.592Z,9.03
2018-10-21T20:58:12.227Z,9.23
2018-10-21T21:00:43.019Z,8.35
2018-10-21T21:03:13.828Z,8.08
2018-10-21T21:05:44.425Z,8.95
2018-10-21T21:08:15.145Z,9.13
2018-10-21T21:10:45.858Z,12.82
2018-10-21T21:13:16.489Z,8.60
2018-10-21T21:15:47.089Z,5.83
2018-10-21T21:18:17.796Z,9.48
2018-10-21T21:20:48.514Z,6.03
2018-10-21T21:23:19.144Z,6.83
2018-10-21T21:25:49.774Z,6.12
2018-10-21T21:28:20.366Z,6.28
2018-10-21T21:30:51.005Z,7.55
2018-10-21T21:33:21.611Z,5.78
2018-10-21T21:35:52.230Z,8.43
2018-10-21T21:38:22.846Z,6.25
2018-10-21T21:40:53.501Z,6.72
2018-10-21T21:43:24.169Z,8.35
2018-10-21T21:45:54.777Z,6.12
2018-10-21T21:48:25.589Z,7.12
2018-10-21T21:50:56.186Z,7.42
2018-10-21T21:53:26.988Z,9.33
2018-10-21T21:55:57.602Z,5.67
2018-10-21T21:58:28.217Z,7.30
2018-10-21T22:00:58.798Z,7.17
2018-10-21T22:03:29.406Z,5.90
2018-10-21T22:06:00.101Z,7.53
2018-10-21T22:08:30.832Z,6.22
2018-10-21T22:11:01.470Z,5.70
2018-10-21T22:13:32.102Z,6.40
2018-10-21T22:16:02.809Z,4.83
2018-10-21T22:18:33.786Z,5.53
2018-10-21T22:21:04.657Z,5.10
2018-10-21T22:23:35.275Z,4.87
2018-10-21T22:26:06.129Z,5.62
2018-10-21T22:28:36.777Z,6.03
2018-10-21T22:31:07.437Z,6.30
2018-10-21T22:33:38.061Z,7.47
2018-10-21T22:36:08.709Z,9.28
2018-10-21T22:38:39.541Z,5.90
2018-10-21T22:41:10.421Z,7.85
2018-10-21T22:43:41.041Z,6.53
2018-10-21T22:46:11.740Z,8.43
2018-10-21T22:48:42.497Z,10.05
2018-10-21T22:51:13.181Z,6.70
2018-10-21T22:53:43.839Z,4.65
2018-10-21T22:56:15.006Z,5.62
2018-10-21T22:58:45.642Z,5.00
2018-10-21T23:01:16.590Z,5.85
2018-10-21T23:03:47.762Z,6.72
2018-10-21T23:06:18.799Z,5.72
2018-10-21T23:08:49.525Z,5.12
2018-10-21T23:11:20.113Z,5.83
2018-10-21T23:13:50.806Z,8.35
2018-10-21T23:16:21.398Z,5.60
2018-10-21T23:19:02.042Z,5.40
2018-10-21T23:21:32.650Z,6.53
2018-10-21T23:24:03.324Z,4.60
2018-10-21T23:26:34.062Z,5.35
2018-10-21T23:29:04.707Z,6.28
2018-10-21T23:31:35.486Z,5.50
2018-10-21T23:34:06.187Z,4.90
2018-10-21T23:36:36.929Z,6.45
2018-10-21T23:39:07.914Z,4.47
2018-10-21T23:41:38.550Z,5.28
2018-10-21T23:44:09.338Z,4.97
2018-10-21T23:46:39.950Z,5.12
2018-10-21T23:49:10.591Z,5.12
2018-10-21T23:51:41.165Z,4.92
2018-10-21T23:54:11.842Z,4.30
2018-10-21T23:56:42.930Z,5.45
2018-10-21T23:59:13.549Z,6.17
